sensor_id;sensor_type;location;lat;lon;timestamp;P1;durP1;ratioP1;P2;durP2;ratioP2
7255;SDS011;3669;49.200;9.242;2022-07-24T00:01:14;10.18;;;9.40;;
7255;SDS011;3669;49.200;9.242;2022-07-24T00:03:41;12.00;;;11.30;;
7255;SDS011;3669;49.200;9.242;2022-07-24T00:06:08;8.63;;;7.93;;
7255;SDS011;3669;49.200;9.242;2022-07-24T00:08:35;7.85;;;7.28;;
7255;SDS011;3669;49.200;9.242;2022-07-24T00:11:02;7.63;;;7.03;;
7255;SDS011;3669;49.200;9.242;2022-07-24T00:13:29;7.55;;;6.93;;
7255;SDS011;3669;49.200;9.242;2022-07-24T00:15:56;8.15;;;7.45;;
7255;SDS011;3669;49.200;9.242;2022-07-24T00:18:23;7.82;;;7.13;;
7255;SDS011;3669;49.200;9.242;2022-07-24T00:20:50;8.23;;;7.55;;
7255;SDS011;3669;49.200;9.242;2022-07-24T00:23:17;7.78;;;7.18;;
7255;SDS011;3669;49.200;9.242;2022-07-24T00:25:44;7.40;;;6.80;;
7255;SDS011;3669;49.200;9.242;2022-07-24T00:28:12;8.80;;;8.10;;
7255;SDS011;3669;49.200;9.242;2022-07-24T00:30:39;8.00;;;7.40;;
7255;SDS011;3669;49.200;9.242;2022-07-24T00:33:06;8.05;;;7.45;;
7255;SDS011;3669;49.200;9.242;2022-07-24T00:35:33;8.38;;;7.68;;
7255;SDS011;3669;49.200;9.242;2022-07-24T00:38:00;7.72;;;7.13;;
7255;SDS011;3669;49.200;9.242;2022-07-24T00:40:28;7.40;;;6.90;;
7255;SDS011;3669;49.200;9.242;2022-07-24T00:42:56;7.43;;;6.82;;
7255;SDS011;3669;49.200;9.242;2022-07-24T00:45:23;7.65;;;7.10;;
7255;SDS011;3669;49.200;9.242;2022-07-24T00:47:51;8.20;;;7.60;;
7255;SDS011;3669;49.200;9.242;2022-07-24T00:50:18;8.07;;;7.47;;
7255;SDS011;3669;49.200;9.242;2022-07-24T00:52:46;7.80;;;7.20;;
7255;SDS011;3669;49.200;9.242;2022-07-24T00:55:13;7.53;;;6.93;;
7255;SDS011;3669;49.200;9.242;2022-07-24T00:57:40;7.95;;;7.25;;
7255;SDS011;3669;49.200;9.242;2022-07-24T01:00:11;8.27;;;7.65;;
7255;SDS011;3669;49.200;9.242;2022-07-24T01:02:41;7.70;;;7.10;;
7255;SDS011;3669;49.200;9.242;2022-07-24T01:05:09;8.07;;;7.38;;
7255;SDS011;3669;49.200;9.242;2022-07-24T01:07:36;7.63;;;7.03;;
7255;SDS011;3669;49.200;9.242;2022-07-24T01:10:04;7.72;;;7.13;;
7255;SDS011;3669;49.200;9.242;2022-07-24T01:12:32;7.85;;;7.13;;
7255;SDS011;3669;49.200;9.242;2022-07-24T01:14:59;8.05;;;7.45;;
7255;SDS011;3669;49.200;9.242;2022-07-24T01:17:30;7.47;;;6.90;;
7255;SDS011;3669;49.200;9.242;2022-07-24T01:19:57;8.18;;;7.47;;
7255;SDS011;3669;49.200;9.242;2022-07-24T01:22:25;8.20;;;7.50;;
7255;SDS011;3669;49.200;9.242;2022-07-24T01:24:52;7.95;;;7.35;;
7255;SDS011;3669;49.200;9.242;2022-07-24T01:27:20;8.07;;;7.47;;
7255;SDS011;3669;49.200;9.242;2022-07-24T01:29:47;8.15;;;7.53;;
7255;SDS011;3669;49.200;9.242;2022-07-24T01:32:14;7.85;;;7.22;;
7255;SDS011;3669;49.200;9.242;2022-07-24T01:34:41;7.65;;;7.05;;
7255;SDS011;3669;49.200;9.242;2022-07-24T01:37:09;7.93;;;7.32;;
7255;SDS011;3669;49.200;9.242;2022-07-24T01:39:36;7.65;;;7.05;;
7255;SDS011;3669;49.200;9.242;2022-07-24T01:42:03;8.15;;;7.43;;
7255;SDS011;3669;49.200;9.242;2022-07-24T01:44:30;7.40;;;6.70;;
7255;SDS011;3669;49.200;9.242;2022-07-24T01:46:58;7.30;;;6.80;;
7255;SDS011;3669;49.200;9.242;2022-07-24T01:49:25;8.13;;;7.43;;
7255;SDS011;3669;49.200;9.242;2022-07-24T01:51:52;8.75;;;8.00;;
7255;SDS011;3669;49.200;9.242;2022-07-24T01:54:19;7.90;;;7.30;;
7255;SDS011;3669;49.200;9.242;2022-07-24T01:56:46;8.07;;;7.47;;
7255;SDS011;3669;49.200;9.242;2022-07-24T01:59:14;8.02;;;7.43;;
7255;SDS011;3669;49.200;9.242;2022-07-24T02:01:41;11.27;;;10.57;;
7255;SDS011;3669;49.200;9.242;2022-07-24T02:04:07;8.40;;;7.80;;
7255;SDS011;3669;49.200;9.242;2022-07-24T02:06:34;8.07;;;7.47;;
7255;SDS011;3669;49.200;9.242;2022-07-24T02:09:01;8.32;;;7.65;;
7255;SDS011;3669;49.200;9.242;2022-07-24T02:11:28;8.32;;;7.53;;
7255;SDS011;3669;49.200;9.242;2022-07-24T02:13:56;13.18;;;12.43;;
7255;SDS011;3669;49.200;9.242;2022-07-24T02:16:25;16.20;;;15.32;;
7255;SDS011;3669;49.200;9.242;2022-07-24T02:18:53;15.63;;;14.77;;
7255;SDS011;3669;49.200;9.242;2022-07-24T02:21:20;16.55;;;15.68;;
7255;SDS011;3669;49.200;9.242;2022-07-24T02:23:46;17.60;;;16.60;;
7255;SDS011;3669;49.200;9.242;2022-07-24T02:26:13;11.00;;;10.15;;
7255;SDS011;3669;49.200;9.242;2022-07-24T02:28:40;10.40;;;9.73;;
7255;SDS011;3669;49.200;9.242;2022-07-24T02:31:06;8.88;;;8.18;;
7255;SDS011;3669;49.200;9.242;2022-07-24T02:33:33;8.63;;;7.95;;
7255;SDS011;3669;49.200;9.242;2022-07-24T02:36:00;7.93;;;7.38;;
7255;SDS011;3669;49.200;9.242;2022-07-24T02:38:27;8.10;;;7.50;;
7255;SDS011;3669;49.200;9.242;2022-07-24T02:40:54;8.38;;;7.68;;
7255;SDS011;3669;49.200;9.242;2022-07-24T02:43:21;8.93;;;8.23;;
7255;SDS011;3669;49.200;9.242;2022-07-24T02:45:48;8.00;;;7.30;;
7255;SDS011;3669;49.200;9.242;2022-07-24T02:48:16;7.80;;;7.20;;
7255;SDS011;3669;49.200;9.242;2022-07-24T02:50:43;7.78;;;7.07;;
7255;SDS011;3669;49.200;9.242;2022-07-24T02:53:10;8.15;;;7.55;;
7255;SDS011;3669;49.200;9.242;2022-07-24T02:55:37;7.85;;;7.30;;
7255;SDS011;3669;49.200;9.242;2022-07-24T02:58:04;8.60;;;7.85;;
7255;SDS011;3669;49.200;9.242;2022-07-24T03:00:31;8.40;;;7.80;;
7255;SDS011;3669;49.200;9.242;2022-07-24T03:02:59;8.02;;;7.43;;
7255;SDS011;3669;49.200;9.242;2022-07-24T03:05:26;8.25;;;7.57;;
7255;SDS011;3669;49.200;9.242;2022-07-24T03:07:53;8.38;;;7.78;;
7255;SDS011;3669;49.200;9.242;2022-07-24T03:10:20;7.97;;;7.38;;
7255;SDS011;3669;49.200;9.242;2022-07-24T03:12:47;7.85;;;7.28;;
7255;SDS011;3669;49.200;9.242;2022-07-24T03:15:15;8.40;;;7.60;;
7255;SDS011;3669;49.200;9.242;2022-07-24T03:17:52;8.00;;;7.40;;
7255;SDS011;3669;49.200;9.242;2022-07-24T03:20:20;8.20;;;7.60;;
7255;SDS011;3669;49.200;9.242;2022-07-24T03:22:48;8.27;;;7.68;;
7255;SDS011;3669;49.200;9.242;2022-07-24T03:25:15;8.13;;;7.53;;
7255;SDS011;3669;49.200;9.242;2022-07-24T03:27:43;8.45;;;7.85;;
7255;SDS011;3669;49.200;9.242;2022-07-24T03:30:11;8.40;;;7.70;;
7255;SDS011;3669;49.200;9.242;2022-07-24T03:32:38;7.95;;;7.35;;
7255;SDS011;3669;49.200;9.242;2022-07-24T03:35:06;7.70;;;7.15;;
7255;SDS011;3669;49.200;9.242;2022-07-24T03:37:33;8.48;;;7.78;;
7255;SDS011;3669;49.200;9.242;2022-07-24T03:40:00;7.90;;;7.30;;
7255;SDS011;3669;49.200;9.242;2022-07-24T03:42:28;7.75;;;7.15;;
7255;SDS011;3669;49.200;9.242;2022-07-24T03:44:55;7.95;;;7.35;;
7255;SDS011;3669;49.200;9.242;2022-07-24T03:47:22;7.85;;;7.25;;
7255;SDS011;3669;49.200;9.242;2022-07-24T03:49:49;7.07;;;6.55;;
7255;SDS011;3669;49.200;9.242;2022-07-24T03:52:16;7.93;;;7.32;;
7255;SDS011;3669;49.200;9.242;2022-07-24T03:54:43;7.70;;;7.10;;
7255;SDS011;3669;49.200;9.242;2022-07-24T03:57:11;7.43;;;6.93;;
7255;SDS011;3669;49.200;9.242;2022-07-24T03:59:38;7.72;;;7.05;;
7255;SDS011;3669;49.200;9.242;2022-07-24T04:02:05;7.80;;;7.20;;
7255;SDS011;3669;49.200;9.242;2022-07-24T04:04:32;8.40;;;7.65;;
7255;SDS011;3669;49.200;9.242;2022-07-24T04:06:59;7.82;;;7.28;;
7255;SDS011;3669;49.200;9.242;2022-07-24T04:09:26;8.00;;;7.40;;
7255;SDS011;3669;49.200;9.242;2022-07-24T04:11:53;7.72;;;7.10;;
7255;SDS011;3669;49.200;9.242;2022-07-24T04:14:20;8.52;;;7.82;;
7255;SDS011;3669;49.200;9.242;2022-07-24T04:16:47;8.57;;;7.88;;
7255;SDS011;3669;49.200;9.242;2022-07-24T04:19:14;7.55;;;6.95;;
7255;SDS011;3669;49.200;9.242;2022-07-24T04:21:41;7.57;;;6.97;;
7255;SDS011;3669;49.200;9.242;2022-07-24T04:24:08;7.70;;;7.10;;
7255;SDS011;3669;49.200;9.242;2022-07-24T04:26:36;7.85;;;7.25;;
7255;SDS011;3669;49.200;9.242;2022-07-24T04:29:03;8.65;;;7.82;;
7255;SDS011;3669;49.200;9.242;2022-07-24T04:31:30;8.25;;;7.55;;
7255;SDS011;3669;49.200;9.242;2022-07-24T04:34:01;7.85;;;7.22;;
7255;SDS011;3669;49.200;9.242;2022-07-24T04:36:28;8.13;;;7.53;;
7255;SDS011;3669;49.200;9.242;2022-07-24T04:38:55;7.68;;;7.07;;
7255;SDS011;3669;49.200;9.242;2022-07-24T04:41:22;7.25;;;6.65;;
7255;SDS011;3669;49.200;9.242;2022-07-24T04:43:50;7.38;;;6.80;;
7255;SDS011;3669;49.200;9.242;2022-07-24T04:46:17;9.10;;;8.38;;
7255;SDS011;3669;49.200;9.242;2022-07-24T04:48:44;12.25;;;11.45;;
7255;SDS011;3669;49.200;9.242;2022-07-24T04:51:11;21.48;;;20.42;;
7255;SDS011;3669;49.200;9.242;2022-07-24T04:53:38;16.88;;;16.00;;
7255;SDS011;3669;49.200;9.242;2022-07-24T04:56:05;14.48;;;13.68;;
7255;SDS011;3669;49.200;9.242;2022-07-24T04:58:32;13.52;;;12.65;;
7255;SDS011;3669;49.200;9.242;2022-07-24T05:00:59;9.57;;;8.90;;
7255;SDS011;3669;49.200;9.242;2022-07-24T05:03:26;7.40;;;6.88;;
7255;SDS011;3669;49.200;9.242;2022-07-24T05:05:53;7.43;;;6.82;;
7255;SDS011;3669;49.200;9.242;2022-07-24T05:08:20;7.75;;;7.15;;
7255;SDS011;3669;49.200;9.242;2022-07-24T05:10:47;7.18;;;6.57;;
7255;SDS011;3669;49.200;9.242;2022-07-24T05:13:14;7.32;;;6.82;;
7255;SDS011;3669;49.200;9.242;2022-07-24T05:15:41;7.70;;;7.10;;
7255;SDS011;3669;49.200;9.242;2022-07-24T05:18:08;8.02;;;7.22;;
7255;SDS011;3669;49.200;9.242;2022-07-24T05:20:35;7.70;;;7.03;;
7255;SDS011;3669;49.200;9.242;2022-07-24T05:23:03;7.07;;;6.47;;
7255;SDS011;3669;49.200;9.242;2022-07-24T05:25:30;6.80;;;6.30;;
7255;SDS011;3669;49.200;9.242;2022-07-24T05:27:57;7.38;;;6.68;;
7255;SDS011;3669;49.200;9.242;2022-07-24T05:30:24;7.30;;;6.70;;
7255;SDS011;3669;49.200;9.242;2022-07-24T05:32:51;7.13;;;6.50;;
7255;SDS011;3669;49.200;9.242;2022-07-24T05:35:18;7.13;;;6.53;;
7255;SDS011;3669;49.200;9.242;2022-07-24T05:37:45;6.88;;;6.38;;
7255;SDS011;3669;49.200;9.242;2022-07-24T05:40:12;6.35;;;5.85;;
7255;SDS011;3669;49.200;9.242;2022-07-24T05:42:40;7.03;;;6.32;;
7255;SDS011;3669;49.200;9.242;2022-07-24T05:45:07;6.75;;;6.20;;
7255;SDS011;3669;49.200;9.242;2022-07-24T05:47:38;6.82;;;6.25;;
7255;SDS011;3669;49.200;9.242;2022-07-24T05:50:07;6.25;;;5.72;;
7255;SDS011;3669;49.200;9.242;2022-07-24T05:52:34;6.60;;;6.00;;
7255;SDS011;3669;49.200;9.242;2022-07-24T05:55:02;6.35;;;5.75;;
7255;SDS011;3669;49.200;9.242;2022-07-24T05:57:29;6.50;;;5.90;;
7255;SDS011;3669;49.200;9.242;2022-07-24T05:59:56;6.53;;;6.03;;
7255;SDS011;3669;49.200;9.242;2022-07-24T06:02:23;6.80;;;6.30;;
7255;SDS011;3669;49.200;9.242;2022-07-24T06:04:50;6.43;;;5.93;;
7255;SDS011;3669;49.200;9.242;2022-07-24T06:07:17;6.97;;;6.38;;
7255;SDS011;3669;49.200;9.242;2022-07-24T06:09:44;7.22;;;6.63;;
7255;SDS011;3669;49.200;9.242;2022-07-24T06:12:11;6.20;;;5.65;;
7255;SDS011;3669;49.200;9.242;2022-07-24T06:14:38;7.07;;;6.47;;
7255;SDS011;3669;49.200;9.242;2022-07-24T06:17:05;6.45;;;5.93;;
7255;SDS011;3669;49.200;9.242;2022-07-24T06:19:33;6.50;;;6.00;;
7255;SDS011;3669;49.200;9.242;2022-07-24T06:22:00;6.55;;;6.13;;
7255;SDS011;3669;49.200;9.242;2022-07-24T06:24:27;6.60;;;6.10;;
7255;SDS011;3669;49.200;9.242;2022-07-24T06:26:54;6.47;;;5.97;;
7255;SDS011;3669;49.200;9.242;2022-07-24T06:29:21;6.93;;;6.32;;
7255;SDS011;3669;49.200;9.242;2022-07-24T06:31:48;7.03;;;6.53;;
7255;SDS011;3669;49.200;9.242;2022-07-24T06:34:15;7.05;;;6.45;;
7255;SDS011;3669;49.200;9.242;2022-07-24T06:36:42;7.18;;;6.57;;
7255;SDS011;3669;49.200;9.242;2022-07-24T06:39:09;7.10;;;6.50;;
7255;SDS011;3669;49.200;9.242;2022-07-24T06:41:36;7.22;;;6.50;;
7255;SDS011;3669;49.200;9.242;2022-07-24T06:44:03;6.90;;;6.25;;
7255;SDS011;3669;49.200;9.242;2022-07-24T06:46:30;6.85;;;6.35;;
7255;SDS011;3669;49.200;9.242;2022-07-24T06:48:57;7.85;;;7.25;;
7255;SDS011;3669;49.200;9.242;2022-07-24T06:51:24;8.05;;;7.30;;
7255;SDS011;3669;49.200;9.242;2022-07-24T06:53:51;7.88;;;7.13;;
7255;SDS011;3669;49.200;9.242;2022-07-24T06:56:18;8.40;;;7.38;;
7255;SDS011;3669;49.200;9.242;2022-07-24T06:58:45;7.75;;;7.15;;
7255;SDS011;3669;49.200;9.242;2022-07-24T07:01:12;7.93;;;7.22;;
7255;SDS011;3669;49.200;9.242;2022-07-24T07:03:39;7.78;;;7.18;;
7255;SDS011;3669;49.200;9.242;2022-07-24T07:06:06;12.27;;;11.57;;
7255;SDS011;3669;49.200;9.242;2022-07-24T07:08:33;23.00;;;21.67;;
7255;SDS011;3669;49.200;9.242;2022-07-24T07:11:00;14.70;;;13.75;;
7255;SDS011;3669;49.200;9.242;2022-07-24T07:13:27;21.48;;;20.33;;
7255;SDS011;3669;49.200;9.242;2022-07-24T07:15:54;32.95;;;31.00;;
7255;SDS011;3669;49.200;9.242;2022-07-24T07:18:21;21.50;;;19.98;;
7255;SDS011;3669;49.200;9.242;2022-07-24T07:20:48;14.63;;;13.73;;
7255;SDS011;3669;49.200;9.242;2022-07-24T07:23:20;21.33;;;19.98;;
7255;SDS011;3669;49.200;9.242;2022-07-24T07:25:47;21.23;;;19.98;;
7255;SDS011;3669;49.200;9.242;2022-07-24T07:28:14;12.20;;;10.50;;
7255;SDS011;3669;49.200;9.242;2022-07-24T07:30:41;8.48;;;7.78;;
7255;SDS011;3669;49.200;9.242;2022-07-24T07:33:08;8.60;;;7.80;;
7255;SDS011;3669;49.200;9.242;2022-07-24T07:35:35;8.45;;;7.68;;
7255;SDS011;3669;49.200;9.242;2022-07-24T07:38:02;8.93;;;8.13;;
7255;SDS011;3669;49.200;9.242;2022-07-24T07:40:29;8.18;;;7.47;;
7255;SDS011;3669;49.200;9.242;2022-07-24T07:42:56;8.70;;;7.90;;
7255;SDS011;3669;49.200;9.242;2022-07-24T07:45:23;8.60;;;7.75;;
7255;SDS011;3669;49.200;9.242;2022-07-24T07:47:50;8.30;;;7.45;;
7255;SDS011;3669;49.200;9.242;2022-07-24T07:50:17;8.23;;;7.53;;
7255;SDS011;3669;49.200;9.242;2022-07-24T07:52:45;8.40;;;7.70;;
7255;SDS011;3669;49.200;9.242;2022-07-24T07:55:12;7.82;;;7.22;;
7255;SDS011;3669;49.200;9.242;2022-07-24T07:57:39;7.82;;;7.22;;
7255;SDS011;3669;49.200;9.242;2022-07-24T08:00:07;8.00;;;7.30;;
7255;SDS011;3669;49.200;9.242;2022-07-24T08:02:34;7.78;;;7.18;;
7255;SDS011;3669;49.200;9.242;2022-07-24T08:05:02;7.88;;;7.28;;
7255;SDS011;3669;49.200;9.242;2022-07-24T08:07:29;7.78;;;7.18;;
7255;SDS011;3669;49.200;9.242;2022-07-24T08:09:56;7.97;;;7.20;;
7255;SDS011;3669;49.200;9.242;2022-07-24T08:12:23;8.05;;;7.40;;
7255;SDS011;3669;49.200;9.242;2022-07-24T08:14:50;7.45;;;6.85;;
7255;SDS011;3669;49.200;9.242;2022-07-24T08:17:18;7.97;;;7.28;;
7255;SDS011;3669;49.200;9.242;2022-07-24T08:19:45;8.00;;;7.40;;
7255;SDS011;3669;49.200;9.242;2022-07-24T08:22:12;7.88;;;7.28;;
7255;SDS011;3669;49.200;9.242;2022-07-24T08:24:39;7.53;;;6.93;;
7255;SDS011;3669;49.200;9.242;2022-07-24T08:27:06;7.60;;;7.00;;
7255;SDS011;3669;49.200;9.242;2022-07-24T08:29:33;7.10;;;6.60;;
7255;SDS011;3669;49.200;9.242;2022-07-24T08:32:00;7.50;;;7.00;;
7255;SDS011;3669;49.200;9.242;2022-07-24T08:34:28;7.60;;;6.95;;
7255;SDS011;3669;49.200;9.242;2022-07-24T08:36:55;7.78;;;7.18;;
7255;SDS011;3669;49.200;9.242;2022-07-24T08:39:22;8.07;;;7.40;;
7255;SDS011;3669;49.200;9.242;2022-07-24T08:41:49;7.53;;;7.00;;
7255;SDS011;3669;49.200;9.242;2022-07-24T08:44:17;7.40;;;6.80;;
7255;SDS011;3669;49.200;9.242;2022-07-24T08:46:44;7.15;;;6.55;;
7255;SDS011;3669;49.200;9.242;2022-07-24T08:49:12;7.70;;;7.10;;
7255;SDS011;3669;49.200;9.242;2022-07-24T08:51:42;7.60;;;7.00;;
7255;SDS011;3669;49.200;9.242;2022-07-24T08:54:10;7.63;;;7.03;;
7255;SDS011;3669;49.200;9.242;2022-07-24T08:56:38;7.68;;;7.07;;
7255;SDS011;3669;49.200;9.242;2022-07-24T08:59:08;7.50;;;6.90;;
7255;SDS011;3669;49.200;9.242;2022-07-24T09:01:42;10.30;;;9.60;;
7255;SDS011;3669;49.200;9.242;2022-07-24T09:04:30;7.85;;;7.18;;
7255;SDS011;3669;49.200;9.242;2022-07-24T09:06:56;7.57;;;6.97;;
7255;SDS011;3669;49.200;9.242;2022-07-24T09:09:23;8.05;;;7.38;;
7255;SDS011;3669;49.200;9.242;2022-07-24T09:12:01;7.50;;;6.90;;
7255;SDS011;3669;49.200;9.242;2022-07-24T09:14:32;8.27;;;7.57;;
7255;SDS011;3669;49.200;9.242;2022-07-24T09:17:10;7.18;;;6.68;;
7255;SDS011;3669;49.200;9.242;2022-07-24T09:27:31;8.25;;;7.55;;
7255;SDS011;3669;49.200;9.242;2022-07-24T09:29:58;7.93;;;7.32;;
7255;SDS011;3669;49.200;9.242;2022-07-24T09:32:26;7.30;;;6.70;;
7255;SDS011;3669;49.200;9.242;2022-07-24T09:34:53;7.93;;;7.32;;
7255;SDS011;3669;49.200;9.242;2022-07-24T09:37:20;10.75;;;10.05;;
7255;SDS011;3669;49.200;9.242;2022-07-24T09:39:48;13.90;;;13.10;;
7255;SDS011;3669;49.200;9.242;2022-07-24T09:42:15;11.77;;;10.88;;
7255;SDS011;3669;49.200;9.242;2022-07-24T09:44:42;10.70;;;10.02;;
7255;SDS011;3669;49.200;9.242;2022-07-24T09:47:09;11.95;;;11.20;;
7255;SDS011;3669;49.200;9.242;2022-07-24T09:49:37;8.20;;;7.60;;
7255;SDS011;3669;49.200;9.242;2022-07-24T09:54:38;8.02;;;7.22;;
7255;SDS011;3669;49.200;9.242;2022-07-24T09:57:18;7.63;;;7.00;;
7255;SDS011;3669;49.200;9.242;2022-07-24T09:59:52;7.60;;;7.00;;
7255;SDS011;3669;49.200;9.242;2022-07-24T10:02:21;7.65;;;6.95;;
7255;SDS011;3669;49.200;9.242;2022-07-24T10:04:49;7.63;;;7.03;;
7255;SDS011;3669;49.200;9.242;2022-07-24T10:07:17;7.45;;;6.85;;
7255;SDS011;3669;49.200;9.242;2022-07-24T10:09:49;7.95;;;7.35;;
7255;SDS011;3669;49.200;9.242;2022-07-24T10:12:17;7.93;;;7.13;;
7255;SDS011;3669;49.200;9.242;2022-07-24T10:14:46;7.47;;;6.93;;
7255;SDS011;3669;49.200;9.242;2022-07-24T10:17:14;7.18;;;6.68;;
7255;SDS011;3669;49.200;9.242;2022-07-24T10:19:42;7.88;;;7.20;;
7255;SDS011;3669;49.200;9.242;2022-07-24T10:22:16;7.68;;;7.07;;
7255;SDS011;3669;49.200;9.242;2022-07-24T10:25:04;8.10;;;7.40;;
7255;SDS011;3669;49.200;9.242;2022-07-24T10:27:35;7.82;;;7.22;;
7255;SDS011;3669;49.200;9.242;2022-07-24T10:30:08;7.38;;;6.78;;
7255;SDS011;3669;49.200;9.242;2022-07-24T10:32:35;7.82;;;7.22;;
7255;SDS011;3669;49.200;9.242;2022-07-24T10:35:13;7.70;;;7.10;;
7255;SDS011;3669;49.200;9.242;2022-07-24T10:40:45;8.10;;;7.40;;
7255;SDS011;3669;49.200;9.242;2022-07-24T10:43:14;7.65;;;7.05;;
7255;SDS011;3669;49.200;9.242;2022-07-24T10:51:00;7.55;;;6.95;;
7255;SDS011;3669;49.200;9.242;2022-07-24T10:58:54;7.45;;;6.85;;
7255;SDS011;3669;49.200;9.242;2022-07-24T11:01:36;7.47;;;6.88;;
7255;SDS011;3669;49.200;9.242;2022-07-24T11:04:24;7.43;;;6.93;;
7255;SDS011;3669;49.200;9.242;2022-07-24T11:06:51;7.30;;;6.75;;
7255;SDS011;3669;49.200;9.242;2022-07-24T11:09:20;6.90;;;6.30;;
7255;SDS011;3669;49.200;9.242;2022-07-24T11:14:22;10.60;;;9.90;;
7255;SDS011;3669;49.200;9.242;2022-07-24T11:16:50;10.15;;;9.43;;
7255;SDS011;3669;49.200;9.242;2022-07-24T11:21:52;7.03;;;6.45;;
7255;SDS011;3669;49.200;9.242;2022-07-24T11:24:27;7.30;;;6.70;;
7255;SDS011;3669;49.200;9.242;2022-07-24T11:27:04;6.93;;;6.35;;
7255;SDS011;3669;49.200;9.242;2022-07-24T11:29:34;6.97;;;6.47;;
7255;SDS011;3669;49.200;9.242;2022-07-24T11:34:29;6.68;;;6.18;;
7255;SDS011;3669;49.200;9.242;2022-07-24T11:36:57;7.20;;;6.50;;
7255;SDS011;3669;49.200;9.242;2022-07-24T11:39:29;7.60;;;6.90;;
7255;SDS011;3669;49.200;9.242;2022-07-24T11:42:00;7.28;;;6.78;;
7255;SDS011;3669;49.200;9.242;2022-07-24T11:44:31;6.63;;;6.10;;
7255;SDS011;3669;49.200;9.242;2022-07-24T11:47:11;7.45;;;6.85;;
7255;SDS011;3669;49.200;9.242;2022-07-24T11:49:46;7.47;;;6.88;;
7255;SDS011;3669;49.200;9.242;2022-07-24T11:52:15;6.80;;;6.28;;
7255;SDS011;3669;49.200;9.242;2022-07-24T11:54:43;7.13;;;6.53;;
7255;SDS011;3669;49.200;9.242;2022-07-24T12:00:04;7.00;;;6.40;;
7255;SDS011;3669;49.200;9.242;2022-07-24T12:02:44;7.03;;;6.43;;
7255;SDS011;3669;49.200;9.242;2022-07-24T12:05:12;6.55;;;6.05;;
7255;SDS011;3669;49.200;9.242;2022-07-24T12:07:39;6.68;;;6.07;;
7255;SDS011;3669;49.200;9.242;2022-07-24T12:10:06;6.57;;;6.07;;
7255;SDS011;3669;49.200;9.242;2022-07-24T12:12:35;6.10;;;5.60;;
7255;SDS011;3669;49.200;9.242;2022-07-24T12:15:07;6.13;;;5.65;;
7255;SDS011;3669;49.200;9.242;2022-07-24T12:17:35;6.55;;;5.95;;
7255;SDS011;3669;49.200;9.242;2022-07-24T12:20:21;6.45;;;5.88;;
7255;SDS011;3669;49.200;9.242;2022-07-24T12:22:49;6.72;;;6.15;;
7255;SDS011;3669;49.200;9.242;2022-07-24T12:25:16;6.43;;;5.93;;
7255;SDS011;3669;49.200;9.242;2022-07-24T12:27:44;7.05;;;6.45;;
7255;SDS011;3669;49.200;9.242;2022-07-24T12:30:32;5.95;;;5.45;;
7255;SDS011;3669;49.200;9.242;2022-07-24T12:33:01;6.05;;;5.55;;
7255;SDS011;3669;49.200;9.242;2022-07-24T12:35:30;6.05;;;5.50;;
7255;SDS011;3669;49.200;9.242;2022-07-24T12:37:58;6.97;;;6.38;;
7255;SDS011;3669;49.200;9.242;2022-07-24T12:40:35;5.97;;;5.57;;
7255;SDS011;3669;49.200;9.242;2022-07-24T12:43:10;6.13;;;5.63;;
7255;SDS011;3669;49.200;9.242;2022-07-24T12:45:38;6.43;;;5.93;;
7255;SDS011;3669;49.200;9.242;2022-07-24T12:48:21;6.95;;;6.45;;
7255;SDS011;3669;49.200;9.242;2022-07-24T12:53:34;6.15;;;5.65;;
7255;SDS011;3669;49.200;9.242;2022-07-24T12:56:10;6.18;;;5.78;;
7255;SDS011;3669;49.200;9.242;2022-07-24T12:58:50;6.30;;;5.70;;
7255;SDS011;3669;49.200;9.242;2022-07-24T13:01:18;6.38;;;5.88;;
7255;SDS011;3669;49.200;9.242;2022-07-24T13:03:50;6.43;;;5.93;;
7255;SDS011;3669;49.200;9.242;2022-07-24T13:06:17;6.18;;;5.68;;
7255;SDS011;3669;49.200;9.242;2022-07-24T13:08:44;6.60;;;6.10;;
7255;SDS011;3669;49.200;9.242;2022-07-24T13:11:12;6.18;;;5.68;;
7255;SDS011;3669;49.200;9.242;2022-07-24T13:13:39;6.40;;;5.90;;
7255;SDS011;3669;49.200;9.242;2022-07-24T13:16:06;6.30;;;5.80;;
7255;SDS011;3669;49.200;9.242;2022-07-24T13:18:33;6.72;;;6.22;;
7255;SDS011;3669;49.200;9.242;2022-07-24T13:21:00;6.28;;;5.75;;
7255;SDS011;3669;49.200;9.242;2022-07-24T13:23:27;6.35;;;5.85;;
7255;SDS011;3669;49.200;9.242;2022-07-24T13:25:54;6.40;;;5.80;;
7255;SDS011;3669;49.200;9.242;2022-07-24T13:28:22;6.15;;;5.72;;
7255;SDS011;3669;49.200;9.242;2022-07-24T13:30:49;6.32;;;5.82;;
7255;SDS011;3669;49.200;9.242;2022-07-24T13:33:16;6.57;;;6.05;;
7255;SDS011;3669;49.200;9.242;2022-07-24T13:35:43;6.75;;;6.18;;
7255;SDS011;3669;49.200;9.242;2022-07-24T13:38:10;6.20;;;5.70;;
7255;SDS011;3669;49.200;9.242;2022-07-24T13:40:37;6.35;;;5.85;;
7255;SDS011;3669;49.200;9.242;2022-07-24T13:43:04;6.35;;;5.88;;
7255;SDS011;3669;49.200;9.242;2022-07-24T13:45:31;6.50;;;6.00;;
7255;SDS011;3669;49.200;9.242;2022-07-24T13:47:58;6.30;;;5.80;;
7255;SDS011;3669;49.200;9.242;2022-07-24T13:50:25;6.22;;;5.72;;
7255;SDS011;3669;49.200;9.242;2022-07-24T13:52:54;6.40;;;5.90;;
7255;SDS011;3669;49.200;9.242;2022-07-24T13:55:22;6.70;;;6.20;;
7255;SDS011;3669;49.200;9.242;2022-07-24T13:57:49;6.40;;;5.90;;
7255;SDS011;3669;49.200;9.242;2022-07-24T14:00:17;6.00;;;5.60;;
7255;SDS011;3669;49.200;9.242;2022-07-24T14:02:44;6.28;;;5.78;;
7255;SDS011;3669;49.200;9.242;2022-07-24T14:05:11;6.47;;;5.97;;
7255;SDS011;3669;49.200;9.242;2022-07-24T14:07:38;6.32;;;5.82;;
7255;SDS011;3669;49.200;9.242;2022-07-24T14:10:04;6.90;;;6.32;;
7255;SDS011;3669;49.200;9.242;2022-07-24T14:12:31;6.57;;;6.07;;
7255;SDS011;3669;49.200;9.242;2022-07-24T14:14:58;7.05;;;6.55;;
7255;SDS011;3669;49.200;9.242;2022-07-24T14:17:25;7.45;;;6.85;;
7255;SDS011;3669;49.200;9.242;2022-07-24T14:19:52;20.85;;;19.85;;
7255;SDS011;3669;49.200;9.242;2022-07-24T14:22:19;19.70;;;18.77;;
7255;SDS011;3669;49.200;9.242;2022-07-24T14:24:46;23.77;;;22.42;;
7255;SDS011;3669;49.200;9.242;2022-07-24T14:27:13;19.42;;;18.45;;
7255;SDS011;3669;49.200;9.242;2022-07-24T14:29:40;13.10;;;12.35;;
7255;SDS011;3669;49.200;9.242;2022-07-24T14:32:07;9.80;;;9.18;;
7255;SDS011;3669;49.200;9.242;2022-07-24T14:34:34;8.07;;;7.55;;
7255;SDS011;3669;49.200;9.242;2022-07-24T14:37:01;6.75;;;6.25;;
7255;SDS011;3669;49.200;9.242;2022-07-24T14:39:28;5.88;;;5.47;;
7255;SDS011;3669;49.200;9.242;2022-07-24T14:41:57;6.15;;;5.65;;
7255;SDS011;3669;49.200;9.242;2022-07-24T14:44:24;6.10;;;5.70;;
7255;SDS011;3669;49.200;9.242;2022-07-24T14:46:51;6.35;;;5.75;;
7255;SDS011;3669;49.200;9.242;2022-07-24T14:49:18;6.43;;;5.82;;
7255;SDS011;3669;49.200;9.242;2022-07-24T14:51:45;6.00;;;5.60;;
7255;SDS011;3669;49.200;9.242;2022-07-24T14:54:12;6.32;;;5.82;;
7255;SDS011;3669;49.200;9.242;2022-07-24T14:56:39;5.97;;;5.45;;
7255;SDS011;3669;49.200;9.242;2022-07-24T14:59:06;6.07;;;5.57;;
7255;SDS011;3669;49.200;9.242;2022-07-24T15:01:34;6.13;;;5.63;;
7255;SDS011;3669;49.200;9.242;2022-07-24T15:04:01;6.32;;;5.82;;
7255;SDS011;3669;49.200;9.242;2022-07-24T15:06:28;6.13;;;5.63;;
7255;SDS011;3669;49.200;9.242;2022-07-24T15:08:55;6.38;;;5.88;;
7255;SDS011;3669;49.200;9.242;2022-07-24T15:11:22;5.85;;;5.45;;
7255;SDS011;3669;49.200;9.242;2022-07-24T15:13:51;6.40;;;5.70;;
7255;SDS011;3669;49.200;9.242;2022-07-24T15:16:19;6.65;;;6.15;;
7255;SDS011;3669;49.200;9.242;2022-07-24T15:18:46;6.13;;;5.72;;
7255;SDS011;3669;49.200;9.242;2022-07-24T15:21:13;5.97;;;5.57;;
7255;SDS011;3669;49.200;9.242;2022-07-24T15:23:40;6.55;;;6.05;;
7255;SDS011;3669;49.200;9.242;2022-07-24T15:26:07;6.00;;;5.53;;
7255;SDS011;3669;49.200;9.242;2022-07-24T15:28:34;5.80;;;5.38;;
7255;SDS011;3669;49.200;9.242;2022-07-24T15:31:01;6.03;;;5.63;;
7255;SDS011;3669;49.200;9.242;2022-07-24T15:33:28;5.90;;;5.40;;
7255;SDS011;3669;49.200;9.242;2022-07-24T15:35:56;6.43;;;5.93;;
7255;SDS011;3669;49.200;9.242;2022-07-24T15:38:23;6.20;;;5.80;;
7255;SDS011;3669;49.200;9.242;2022-07-24T15:40:50;6.15;;;5.63;;
7255;SDS011;3669;49.200;9.242;2022-07-24T15:43:17;6.15;;;5.75;;
7255;SDS011;3669;49.200;9.242;2022-07-24T15:45:44;6.30;;;5.80;;
7255;SDS011;3669;49.200;9.242;2022-07-24T15:48:12;6.38;;;5.88;;
7255;SDS011;3669;49.200;9.242;2022-07-24T15:50:39;6.45;;;5.95;;
7255;SDS011;3669;49.200;9.242;2022-07-24T15:53:06;6.53;;;6.03;;
7255;SDS011;3669;49.200;9.242;2022-07-24T15:55:33;6.38;;;5.88;;